sensor_id;sensor_type;location;lat;lon;timestamp;P1;durP1;ratioP1;P2;durP2;ratioP2
12707;SDS011;6418;50.824;4.718;2023-04-28T00:00:50;41.60;;;26.93;;
12707;SDS011;6418;50.824;4.718;2023-04-28T00:03:18;48.27;;;30.00;;
12707;SDS011;6418;50.824;4.718;2023-04-28T00:05:45;44.47;;;28.97;;
12707;SDS011;6418;50.824;4.718;2023-04-28T00:08:13;48.40;;;29.37;;
12707;SDS011;6418;50.824;4.718;2023-04-28T00:10:41;45.63;;;31.27;;
12707;SDS011;6418;50.824;4.718;2023-04-28T00:13:08;52.17;;;31.33;;
12707;SDS011;6418;50.824;4.718;2023-04-28T00:15:35;47.90;;;30.10;;
12707;SDS011;6418;50.824;4.718;2023-04-28T00:18:02;51.13;;;30.43;;
12707;SDS011;6418;50.824;4.718;2023-04-28T00:20:30;51.90;;;31.87;;
12707;SDS011;6418;50.824;4.718;2023-04-28T00:22:57;51.13;;;31.60;;
12707;SDS011;6418;50.824;4.718;2023-04-28T00:25:24;58.83;;;34.50;;
12707;SDS011;6418;50.824;4.718;2023-04-28T00:27:52;53.17;;;32.40;;
12707;SDS011;6418;50.824;4.718;2023-04-28T00:30:19;49.97;;;32.33;;
12707;SDS011;6418;50.824;4.718;2023-04-28T00:32:47;49.77;;;32.17;;
12707;SDS011;6418;50.824;4.718;2023-04-28T00:35:14;50.40;;;32.17;;
12707;SDS011;6418;50.824;4.718;2023-04-28T00:37:40;50.27;;;31.30;;
12707;SDS011;6418;50.824;4.718;2023-04-28T00:40:08;47.20;;;31.67;;
12707;SDS011;6418;50.824;4.718;2023-04-28T00:42:36;51.53;;;32.07;;
12707;SDS011;6418;50.824;4.718;2023-04-28T00:45:04;49.43;;;31.43;;
12707;SDS011;6418;50.824;4.718;2023-04-28T00:47:32;50.23;;;32.90;;
12707;SDS011;6418;50.824;4.718;2023-04-28T00:49:59;49.00;;;31.60;;
12707;SDS011;6418;50.824;4.718;2023-04-28T00:52:27;50.70;;;32.53;;
12707;SDS011;6418;50.824;4.718;2023-04-28T00:54:54;50.23;;;32.63;;
12707;SDS011;6418;50.824;4.718;2023-04-28T00:57:22;50.17;;;33.17;;
12707;SDS011;6418;50.824;4.718;2023-04-28T00:59:49;51.53;;;34.67;;
12707;SDS011;6418;50.824;4.718;2023-04-28T01:02:18;51.07;;;33.50;;
12707;SDS011;6418;50.824;4.718;2023-04-28T01:04:45;51.73;;;33.80;;
12707;SDS011;6418;50.824;4.718;2023-04-28T01:07:12;54.80;;;34.57;;
12707;SDS011;6418;50.824;4.718;2023-04-28T01:09:39;51.17;;;34.37;;
12707;SDS011;6418;50.824;4.718;2023-04-28T01:12:08;52.03;;;33.57;;
12707;SDS011;6418;50.824;4.718;2023-04-28T01:14:35;52.37;;;33.90;;
12707;SDS011;6418;50.824;4.718;2023-04-28T01:17:02;52.93;;;36.00;;
12707;SDS011;6418;50.824;4.718;2023-04-28T01:19:30;50.93;;;34.57;;
12707;SDS011;6418;50.824;4.718;2023-04-28T01:21:57;54.70;;;35.30;;
12707;SDS011;6418;50.824;4.718;2023-04-28T01:24:26;54.63;;;35.63;;
12707;SDS011;6418;50.824;4.718;2023-04-28T01:26:53;53.70;;;34.27;;
12707;SDS011;6418;50.824;4.718;2023-04-28T01:29:20;52.40;;;35.10;;
12707;SDS011;6418;50.824;4.718;2023-04-28T01:31:47;55.60;;;35.77;;
12707;SDS011;6418;50.824;4.718;2023-04-28T01:34:14;59.10;;;36.50;;
12707;SDS011;6418;50.824;4.718;2023-04-28T01:36:41;55.57;;;36.43;;
12707;SDS011;6418;50.824;4.718;2023-04-28T01:39:07;54.53;;;35.77;;
12707;SDS011;6418;50.824;4.718;2023-04-28T01:41:36;54.67;;;36.23;;
12707;SDS011;6418;50.824;4.718;2023-04-28T01:44:03;53.67;;;35.90;;
12707;SDS011;6418;50.824;4.718;2023-04-28T01:46:31;55.67;;;35.63;;
12707;SDS011;6418;50.824;4.718;2023-04-28T01:48:58;56.37;;;34.93;;
12707;SDS011;6418;50.824;4.718;2023-04-28T01:51:26;53.63;;;35.27;;
12707;SDS011;6418;50.824;4.718;2023-04-28T01:53:53;51.83;;;33.90;;
12707;SDS011;6418;50.824;4.718;2023-04-28T01:56:20;53.13;;;33.73;;
12707;SDS011;6418;50.824;4.718;2023-04-28T01:58:48;50.00;;;33.73;;
12707;SDS011;6418;50.824;4.718;2023-04-28T02:01:15;50.57;;;33.27;;
12707;SDS011;6418;50.824;4.718;2023-04-28T02:03:42;52.53;;;34.20;;
12707;SDS011;6418;50.824;4.718;2023-04-28T02:06:09;53.03;;;32.43;;
12707;SDS011;6418;50.824;4.718;2023-04-28T02:08:36;50.73;;;33.40;;
12707;SDS011;6418;50.824;4.718;2023-04-28T02:11:03;50.70;;;32.07;;
12707;SDS011;6418;50.824;4.718;2023-04-28T02:13:30;52.90;;;33.47;;
12707;SDS011;6418;50.824;4.718;2023-04-28T02:16:00;51.33;;;32.50;;
12707;SDS011;6418;50.824;4.718;2023-04-28T02:18:27;47.07;;;31.50;;
12707;SDS011;6418;50.824;4.718;2023-04-28T02:20:54;52.23;;;32.57;;
12707;SDS011;6418;50.824;4.718;2023-04-28T02:23:21;48.30;;;32.27;;
12707;SDS011;6418;50.824;4.718;2023-04-28T02:25:48;48.53;;;32.20;;
12707;SDS011;6418;50.824;4.718;2023-04-28T02:28:15;51.77;;;34.17;;
12707;SDS011;6418;50.824;4.718;2023-04-28T02:30:42;50.77;;;32.67;;
12707;SDS011;6418;50.824;4.718;2023-04-28T02:33:10;50.63;;;33.70;;
12707;SDS011;6418;50.824;4.718;2023-04-28T02:35:37;50.47;;;33.13;;
12707;SDS011;6418;50.824;4.718;2023-04-28T02:38:04;50.37;;;33.90;;
12707;SDS011;6418;50.824;4.718;2023-04-28T02:40:31;48.50;;;32.87;;
12707;SDS011;6418;50.824;4.718;2023-04-28T02:42:58;50.23;;;33.77;;
12707;SDS011;6418;50.824;4.718;2023-04-28T02:45:25;53.83;;;33.70;;
12707;SDS011;6418;50.824;4.718;2023-04-28T02:47:52;54.90;;;35.70;;
12707;SDS011;6418;50.824;4.718;2023-04-28T02:50:21;53.23;;;33.10;;
12707;SDS011;6418;50.824;4.718;2023-04-28T02:52:48;51.77;;;35.03;;
12707;SDS011;6418;50.824;4.718;2023-04-28T02:55:15;54.07;;;35.63;;
12707;SDS011;6418;50.824;4.718;2023-04-28T02:57:48;57.33;;;35.87;;
12707;SDS011;6418;50.824;4.718;2023-04-28T03:00:15;58.90;;;36.10;;
12707;SDS011;6418;50.824;4.718;2023-04-28T03:02:42;58.63;;;36.03;;
12707;SDS011;6418;50.824;4.718;2023-04-28T03:05:09;58.60;;;37.20;;
12707;SDS011;6418;50.824;4.718;2023-04-28T03:07:37;59.03;;;36.27;;
12707;SDS011;6418;50.824;4.718;2023-04-28T03:10:05;54.60;;;35.27;;
12707;SDS011;6418;50.824;4.718;2023-04-28T03:12:32;54.37;;;36.27;;
12707;SDS011;6418;50.824;4.718;2023-04-28T03:14:59;59.57;;;37.20;;
12707;SDS011;6418;50.824;4.718;2023-04-28T03:17:26;60.77;;;39.23;;
12707;SDS011;6418;50.824;4.718;2023-04-28T03:19:53;59.03;;;36.17;;
12707;SDS011;6418;50.824;4.718;2023-04-28T03:22:20;54.03;;;36.20;;
12707;SDS011;6418;50.824;4.718;2023-04-28T03:24:49;57.57;;;36.37;;
12707;SDS011;6418;50.824;4.718;2023-04-28T03:27:16;59.97;;;36.60;;
12707;SDS011;6418;50.824;4.718;2023-04-28T03:29:42;58.37;;;37.50;;
12707;SDS011;6418;50.824;4.718;2023-04-28T03:32:10;57.10;;;37.10;;
12707;SDS011;6418;50.824;4.718;2023-04-28T03:34:36;58.37;;;37.30;;
12707;SDS011;6418;50.824;4.718;2023-04-28T03:37:04;60.53;;;37.10;;
12707;SDS011;6418;50.824;4.718;2023-04-28T03:39:31;61.23;;;38.03;;
12707;SDS011;6418;50.824;4.718;2023-04-28T03:41:59;60.93;;;38.53;;
12707;SDS011;6418;50.824;4.718;2023-04-28T03:44:26;58.73;;;36.17;;
12707;SDS011;6418;50.824;4.718;2023-04-28T03:46:53;61.60;;;38.70;;
12707;SDS011;6418;50.824;4.718;2023-04-28T03:49:20;61.30;;;37.80;;
12707;SDS011;6418;50.824;4.718;2023-04-28T03:51:47;63.63;;;39.43;;
12707;SDS011;6418;50.824;4.718;2023-04-28T03:54:15;64.23;;;38.87;;
12707;SDS011;6418;50.824;4.718;2023-04-28T03:56:42;67.93;;;40.03;;
12707;SDS011;6418;50.824;4.718;2023-04-28T03:59:12;64.03;;;39.33;;
12707;SDS011;6418;50.824;4.718;2023-04-28T04:01:39;66.97;;;39.73;;
12707;SDS011;6418;50.824;4.718;2023-04-28T04:04:06;65.20;;;40.87;;
12707;SDS011;6418;50.824;4.718;2023-04-28T04:06:33;68.73;;;41.57;;
12707;SDS011;6418;50.824;4.718;2023-04-28T04:09:00;62.13;;;41.23;;
12707;SDS011;6418;50.824;4.718;2023-04-28T04:11:27;66.67;;;40.07;;
12707;SDS011;6418;50.824;4.718;2023-04-28T04:13:54;68.33;;;41.47;;
12707;SDS011;6418;50.824;4.718;2023-04-28T04:16:22;68.87;;;41.63;;
12707;SDS011;6418;50.824;4.718;2023-04-28T04:18:49;67.73;;;41.67;;
12707;SDS011;6418;50.824;4.718;2023-04-28T04:21:16;67.60;;;41.63;;
12707;SDS011;6418;50.824;4.718;2023-04-28T04:23:43;68.17;;;43.37;;
12707;SDS011;6418;50.824;4.718;2023-04-28T04:26:10;73.60;;;43.60;;
12707;SDS011;6418;50.824;4.718;2023-04-28T04:28:37;70.30;;;42.53;;
12707;SDS011;6418;50.824;4.718;2023-04-28T04:31:04;66.13;;;42.10;;
12707;SDS011;6418;50.824;4.718;2023-04-28T04:33:33;66.63;;;40.40;;
12707;SDS011;6418;50.824;4.718;2023-04-28T04:36:01;67.27;;;41.83;;
12707;SDS011;6418;50.824;4.718;2023-04-28T04:38:29;68.10;;;42.50;;
12707;SDS011;6418;50.824;4.718;2023-04-28T04:40:56;67.63;;;40.90;;
12707;SDS011;6418;50.824;4.718;2023-04-28T04:43:23;68.57;;;43.37;;
12707;SDS011;6418;50.824;4.718;2023-04-28T04:45:50;68.20;;;43.27;;
12707;SDS011;6418;50.824;4.718;2023-04-28T04:48:17;66.97;;;42.27;;
12707;SDS011;6418;50.824;4.718;2023-04-28T04:50:45;71.17;;;42.53;;
12707;SDS011;6418;50.824;4.718;2023-04-28T04:53:13;68.50;;;41.70;;
12707;SDS011;6418;50.824;4.718;2023-04-28T04:55:40;71.33;;;42.57;;
12707;SDS011;6418;50.824;4.718;2023-04-28T04:58:07;66.73;;;42.73;;
12707;SDS011;6418;50.824;4.718;2023-04-28T05:00:34;71.23;;;43.43;;
12707;SDS011;6418;50.824;4.718;2023-04-28T05:03:01;63.07;;;41.43;;
12707;SDS011;6418;50.824;4.718;2023-04-28T05:05:30;68.67;;;43.63;;
12707;SDS011;6418;50.824;4.718;2023-04-28T05:07:59;67.77;;;43.07;;
12707;SDS011;6418;50.824;4.718;2023-04-28T05:10:26;64.57;;;42.20;;
12707;SDS011;6418;50.824;4.718;2023-04-28T05:12:53;63.00;;;41.90;;
12707;SDS011;6418;50.824;4.718;2023-04-28T05:15:20;62.43;;;40.67;;
12707;SDS011;6418;50.824;4.718;2023-04-28T05:17:47;66.03;;;41.67;;
12707;SDS011;6418;50.824;4.718;2023-04-28T05:20:14;71.27;;;43.70;;
12707;SDS011;6418;50.824;4.718;2023-04-28T05:22:41;66.53;;;41.67;;
12707;SDS011;6418;50.824;4.718;2023-04-28T05:25:10;65.10;;;40.77;;
12707;SDS011;6418;50.824;4.718;2023-04-28T05:27:37;66.83;;;41.50;;
12707;SDS011;6418;50.824;4.718;2023-04-28T05:30:05;65.60;;;43.33;;
12707;SDS011;6418;50.824;4.718;2023-04-28T05:32:33;71.67;;;43.30;;
12707;SDS011;6418;50.824;4.718;2023-04-28T05:35:01;69.33;;;42.73;;
12707;SDS011;6418;50.824;4.718;2023-04-28T05:37:28;62.80;;;41.83;;
12707;SDS011;6418;50.824;4.718;2023-04-28T05:39:55;69.37;;;42.93;;
12707;SDS011;6418;50.824;4.718;2023-04-28T05:42:23;63.40;;;41.27;;
12707;SDS011;6418;50.824;4.718;2023-04-28T05:44:51;66.10;;;41.07;;
12707;SDS011;6418;50.824;4.718;2023-04-28T05:47:17;61.57;;;41.07;;
12707;SDS011;6418;50.824;4.718;2023-04-28T05:49:44;64.10;;;40.97;;
12707;SDS011;6418;50.824;4.718;2023-04-28T05:52:11;64.00;;;40.10;;
12707;SDS011;6418;50.824;4.718;2023-04-28T05:54:38;63.27;;;39.37;;
12707;SDS011;6418;50.824;4.718;2023-04-28T05:57:05;64.70;;;39.57;;
12707;SDS011;6418;50.824;4.718;2023-04-28T05:59:34;64.20;;;39.17;;
12707;SDS011;6418;50.824;4.718;2023-04-28T06:02:01;59.83;;;37.87;;
12707;SDS011;6418;50.824;4.718;2023-04-28T06:04:28;62.93;;;37.53;;
12707;SDS011;6418;50.824;4.718;2023-04-28T06:06:55;61.10;;;37.13;;
12707;SDS011;6418;50.824;4.718;2023-04-28T06:09:22;62.60;;;37.47;;
12707;SDS011;6418;50.824;4.718;2023-04-28T06:11:49;64.73;;;37.20;;
12707;SDS011;6418;50.824;4.718;2023-04-28T06:14:16;65.90;;;37.03;;
12707;SDS011;6418;50.824;4.718;2023-04-28T06:16:44;67.07;;;37.73;;
12707;SDS011;6418;50.824;4.718;2023-04-28T06:19:11;70.70;;;37.80;;
12707;SDS011;6418;50.824;4.718;2023-04-28T06:21:39;74.83;;;37.93;;
12707;SDS011;6418;50.824;4.718;2023-04-28T06:24:09;65.03;;;35.43;;
12707;SDS011;6418;50.824;4.718;2023-04-28T06:26:36;66.13;;;35.57;;
12707;SDS011;6418;50.824;4.718;2023-04-28T06:29:03;63.50;;;34.57;;
12707;SDS011;6418;50.824;4.718;2023-04-28T06:31:30;63.63;;;34.40;;
12707;SDS011;6418;50.824;4.718;2023-04-28T06:33:58;61.50;;;34.40;;
12707;SDS011;6418;50.824;4.718;2023-04-28T06:36:25;61.77;;;32.57;;
12707;SDS011;6418;50.824;4.718;2023-04-28T06:38:52;56.73;;;32.17;;
12707;SDS011;6418;50.824;4.718;2023-04-28T06:41:19;57.03;;;32.27;;
12707;SDS011;6418;50.824;4.718;2023-04-28T06:43:46;58.40;;;31.20;;
12707;SDS011;6418;50.824;4.718;2023-04-28T06:46:15;48.97;;;28.07;;
12707;SDS011;6418;50.824;4.718;2023-04-28T06:48:41;48.53;;;27.33;;
12707;SDS011;6418;50.824;4.718;2023-04-28T06:51:10;46.60;;;26.43;;
12707;SDS011;6418;50.824;4.718;2023-04-28T06:53:37;46.27;;;26.40;;
12707;SDS011;6418;50.824;4.718;2023-04-28T06:56:05;44.23;;;26.23;;
12707;SDS011;6418;50.824;4.718;2023-04-28T06:58:32;47.20;;;26.70;;
12707;SDS011;6418;50.824;4.718;2023-04-28T07:01:01;40.13;;;25.27;;
12707;SDS011;6418;50.824;4.718;2023-04-28T07:03:29;33.43;;;21.23;;
12707;SDS011;6418;50.824;4.718;2023-04-28T07:05:56;31.93;;;20.17;;
12707;SDS011;6418;50.824;4.718;2023-04-28T07:08:25;31.90;;;20.37;;
12707;SDS011;6418;50.824;4.718;2023-04-28T07:10:54;33.07;;;21.00;;
12707;SDS011;6418;50.824;4.718;2023-04-28T07:13:21;29.33;;;19.63;;
12707;SDS011;6418;50.824;4.718;2023-04-28T07:15:48;27.70;;;18.53;;
12707;SDS011;6418;50.824;4.718;2023-04-28T07:18:15;28.47;;;18.70;;
12707;SDS011;6418;50.824;4.718;2023-04-28T07:20:42;27.33;;;17.80;;
12707;SDS011;6418;50.824;4.718;2023-04-28T07:23:09;24.97;;;17.30;;
12707;SDS011;6418;50.824;4.718;2023-04-28T07:25:38;24.13;;;15.50;;
12707;SDS011;6418;50.824;4.718;2023-04-28T07:28:05;20.73;;;15.03;;
12707;SDS011;6418;50.824;4.718;2023-04-28T07:30:32;23.60;;;15.87;;
12707;SDS011;6418;50.824;4.718;2023-04-28T07:33:00;20.53;;;14.53;;
12707;SDS011;6418;50.824;4.718;2023-04-28T07:35:27;20.90;;;14.10;;
12707;SDS011;6418;50.824;4.718;2023-04-28T07:37:54;18.80;;;13.43;;
12707;SDS011;6418;50.824;4.718;2023-04-28T07:40:22;20.83;;;13.70;;
12707;SDS011;6418;50.824;4.718;2023-04-28T07:42:50;18.03;;;13.30;;
12707;SDS011;6418;50.824;4.718;2023-04-28T07:45:18;18.67;;;14.03;;
12707;SDS011;6418;50.824;4.718;2023-04-28T07:47:45;17.40;;;12.60;;
12707;SDS011;6418;50.824;4.718;2023-04-28T07:50:12;16.93;;;12.33;;
12707;SDS011;6418;50.824;4.718;2023-04-28T07:52:40;15.60;;;11.77;;
12707;SDS011;6418;50.824;4.718;2023-04-28T07:55:07;14.10;;;10.30;;
12707;SDS011;6418;50.824;4.718;2023-04-28T07:57:34;13.33;;;9.47;;
12707;SDS011;6418;50.824;4.718;2023-04-28T08:00:05;13.63;;;9.33;;
12707;SDS011;6418;50.824;4.718;2023-04-28T08:02:33;13.10;;;8.90;;
12707;SDS011;6418;50.824;4.718;2023-04-28T08:05:00;13.47;;;9.03;;
12707;SDS011;6418;50.824;4.718;2023-04-28T08:07:28;13.27;;;8.73;;
12707;SDS011;6418;50.824;4.718;2023-04-28T08:09:55;14.03;;;8.43;;
12707;SDS011;6418;50.824;4.718;2023-04-28T08:12:22;13.10;;;8.83;;
12707;SDS011;6418;50.824;4.718;2023-04-28T08:14:49;12.33;;;8.67;;
12707;SDS011;6418;50.824;4.718;2023-04-28T08:17:17;12.50;;;7.80;;
12707;SDS011;6418;50.824;4.718;2023-04-28T08:19:44;11.83;;;7.23;;
12707;SDS011;6418;50.824;4.718;2023-04-28T08:22:11;10.57;;;6.83;;
12707;SDS011;6418;50.824;4.718;2023-04-28T08:24:38;12.30;;;7.33;;
12707;SDS011;6418;50.824;4.718;2023-04-28T08:27:05;10.20;;;6.53;;
12707;SDS011;6418;50.824;4.718;2023-04-28T08:29:32;10.20;;;6.40;;
12707;SDS011;6418;50.824;4.718;2023-04-28T08:31:59;8.97;;;5.87;;
12707;SDS011;6418;50.824;4.718;2023-04-28T08:34:28;10.23;;;5.90;;
12707;SDS011;6418;50.824;4.718;2023-04-28T08:36:55;8.40;;;5.33;;
12707;SDS011;6418;50.824;4.718;2023-04-28T08:39:22;7.83;;;5.20;;
12707;SDS011;6418;50.824;4.718;2023-04-28T08:41:51;8.70;;;5.03;;
12707;SDS011;6418;50.824;4.718;2023-04-28T08:44:18;7.47;;;4.77;;
12707;SDS011;6418;50.824;4.718;2023-04-28T08:46:47;5.27;;;4.40;;
12707;SDS011;6418;50.824;4.718;2023-04-28T08:49:16;6.53;;;4.90;;
12707;SDS011;6418;50.824;4.718;2023-04-28T08:51:45;7.10;;;5.00;;
12707;SDS011;6418;50.824;4.718;2023-04-28T08:54:15;6.63;;;4.60;;
12707;SDS011;6418;50.824;4.718;2023-04-28T08:56:44;7.57;;;4.80;;
12707;SDS011;6418;50.824;4.718;2023-04-28T08:59:12;6.70;;;4.57;;
12707;SDS011;6418;50.824;4.718;2023-04-28T09:01:42;5.07;;;4.50;;
12707;SDS011;6418;50.824;4.718;2023-04-28T09:04:09;6.50;;;4.40;;
12707;SDS011;6418;50.824;4.718;2023-04-28T09:06:37;5.77;;;4.60;;
12707;SDS011;6418;50.824;4.718;2023-04-28T09:09:22;7.03;;;4.70;;
12707;SDS011;6418;50.824;4.718;2023-04-28T09:11:51;5.63;;;4.67;;
12707;SDS011;6418;50.824;4.718;2023-04-28T09:14:20;7.53;;;4.50;;
12707;SDS011;6418;50.824;4.718;2023-04-28T09:16:48;8.53;;;4.20;;
12707;SDS011;6418;50.824;4.718;2023-04-28T09:19:15;6.63;;;4.73;;
12707;SDS011;6418;50.824;4.718;2023-04-28T09:21:49;7.13;;;4.70;;
12707;SDS011;6418;50.824;4.718;2023-04-28T09:24:29;5.97;;;4.67;;
12707;SDS011;6418;50.824;4.718;2023-04-28T09:26:57;7.23;;;4.90;;
12707;SDS011;6418;50.824;4.718;2023-04-28T09:29:24;7.73;;;4.93;;
12707;SDS011;6418;50.824;4.718;2023-04-28T09:31:52;7.23;;;4.93;;
12707;SDS011;6418;50.824;4.718;2023-04-28T09:34:19;8.53;;;5.30;;
12707;SDS011;6418;50.824;4.718;2023-04-28T09:36:47;9.63;;;5.67;;
12707;SDS011;6418;50.824;4.718;2023-04-28T09:39:14;10.00;;;5.60;;
12707;SDS011;6418;50.824;4.718;2023-04-28T09:41:55;8.33;;;5.47;;
12707;SDS011;6418;50.824;4.718;2023-04-28T09:44:27;10.83;;;5.93;;
12707;SDS011;6418;50.824;4.718;2023-04-28T09:46:54;8.77;;;5.63;;
12707;SDS011;6418;50.824;4.718;2023-04-28T09:49:21;8.67;;;5.60;;
12707;SDS011;6418;50.824;4.718;2023-04-28T09:51:48;9.20;;;5.73;;
12707;SDS011;6418;50.824;4.718;2023-04-28T09:54:15;9.23;;;5.90;;
12707;SDS011;6418;50.824;4.718;2023-04-28T09:56:45;10.03;;;5.80;;
12707;SDS011;6418;50.824;4.718;2023-04-28T09:59:13;9.77;;;5.57;;
12707;SDS011;6418;50.824;4.718;2023-04-28T10:01:40;9.83;;;5.50;;
12707;SDS011;6418;50.824;4.718;2023-04-28T10:04:09;8.00;;;5.40;;
12707;SDS011;6418;50.824;4.718;2023-04-28T10:06:37;8.30;;;5.00;;
12707;SDS011;6418;50.824;4.718;2023-04-28T10:09:05;8.20;;;4.77;;
12707;SDS011;6418;50.824;4.718;2023-04-28T10:11:32;4.17;;;3.67;;
12707;SDS011;6418;50.824;4.718;2023-04-28T10:14:01;4.80;;;3.70;;
12707;SDS011;6418;50.824;4.718;2023-04-28T10:16:29;4.20;;;3.23;;
12707;SDS011;6418;50.824;4.718;2023-04-28T10:18:57;3.40;;;3.10;;
12707;SDS011;6418;50.824;4.718;2023-04-28T10:21:24;4.00;;;3.10;;
12707;SDS011;6418;50.824;4.718;2023-04-28T10:24:09;4.03;;;2.90;;
12707;SDS011;6418;50.824;4.718;2023-04-28T10:27:01;2.60;;;2.40;;
12707;SDS011;6418;50.824;4.718;2023-04-28T10:29:32;2.23;;;2.13;;
12707;SDS011;6418;50.824;4.718;2023-04-28T10:38:03;3.50;;;2.50;;
12707;SDS011;6418;50.824;4.718;2023-04-28T10:40:30;3.03;;;2.73;;
12707;SDS011;6418;50.824;4.718;2023-04-28T10:42:58;2.50;;;2.30;;
12707;SDS011;6418;50.824;4.718;2023-04-28T10:48:51;2.50;;;2.30;;
12707;SDS011;6418;50.824;4.718;2023-04-28T10:51:22;4.05;;;2.60;;
12707;SDS011;6418;50.824;4.718;2023-04-28T10:54:08;7.03;;;3.13;;
12707;SDS011;6418;50.824;4.718;2023-04-28T10:56:39;3.70;;;2.67;;
12707;SDS011;6418;50.824;4.718;2023-04-28T10:59:25;4.30;;;2.27;;
12707;SDS011;6418;50.824;4.718;2023-04-28T11:01:55;3.60;;;2.03;;
12707;SDS011;6418;50.824;4.718;2023-04-28T11:05:10;3.33;;;2.37;;
12707;SDS011;6418;50.824;4.718;2023-04-28T11:07:38;2.40;;;2.20;;
12707;SDS011;6418;50.824;4.718;2023-04-28T11:10:05;3.00;;;2.50;;
12707;SDS011;6418;50.824;4.718;2023-04-28T11:12:33;3.00;;;2.30;;
12707;SDS011;6418;50.824;4.718;2023-04-28T11:15:09;2.07;;;1.90;;
12707;SDS011;6418;50.824;4.718;2023-04-28T11:17:40;2.33;;;2.23;;
12707;SDS011;6418;50.824;4.718;2023-04-28T11:20:09;4.17;;;2.57;;
12707;SDS011;6418;50.824;4.718;2023-04-28T11:22:39;4.47;;;2.50;;
12707;SDS011;6418;50.824;4.718;2023-04-28T11:25:07;2.83;;;1.80;;
12707;SDS011;6418;50.824;4.718;2023-04-28T11:27:34;2.33;;;2.13;;
12707;SDS011;6418;50.824;4.718;2023-04-28T11:30:01;6.03;;;2.20;;
12707;SDS011;6418;50.824;4.718;2023-04-28T11:32:30;3.57;;;2.40;;
12707;SDS011;6418;50.824;4.718;2023-04-28T11:35:00;2.87;;;2.33;;
12707;SDS011;6418;50.824;4.718;2023-04-28T11:37:28;3.70;;;2.47;;
12707;SDS011;6418;50.824;4.718;2023-04-28T11:39:55;2.20;;;2.10;;
12707;SDS011;6418;50.824;4.718;2023-04-28T11:42:22;3.20;;;2.07;;
12707;SDS011;6418;50.824;4.718;2023-04-28T11:44:51;5.60;;;2.37;;
12707;SDS011;6418;50.824;4.718;2023-04-28T11:47:28;2.97;;;2.20;;
12707;SDS011;6418;50.824;4.718;2023-04-28T11:49:56;3.53;;;2.10;;
12707;SDS011;6418;50.824;4.718;2023-04-28T11:52:25;3.25;;;2.47;;
12707;SDS011;6418;50.824;4.718;2023-04-28T11:54:53;2.90;;;2.40;;
12707;SDS011;6418;50.824;4.718;2023-04-28T11:57:21;3.00;;;2.50;;
12707;SDS011;6418;50.824;4.718;2023-04-28T11:59:48;2.80;;;2.03;;
12707;SDS011;6418;50.824;4.718;2023-04-28T12:02:18;4.90;;;2.80;;
12707;SDS011;6418;50.824;4.718;2023-04-28T12:04:51;3.20;;;2.90;;
12707;SDS011;6418;50.824;4.718;2023-04-28T12:07:18;3.37;;;2.87;;
12707;SDS011;6418;50.824;4.718;2023-04-28T12:09:47;2.80;;;2.60;;
12707;SDS011;6418;50.824;4.718;2023-04-28T12:12:34;3.73;;;2.40;;
12707;SDS011;6418;50.824;4.718;2023-04-28T12:15:02;3.20;;;2.60;;
12707;SDS011;6418;50.824;4.718;2023-04-28T12:17:30;4.47;;;4.07;;
12707;SDS011;6418;50.824;4.718;2023-04-28T12:19:59;5.97;;;4.57;;
12707;SDS011;6418;50.824;4.718;2023-04-28T12:22:28;8.23;;;4.87;;
12707;SDS011;6418;50.824;4.718;2023-04-28T12:25:03;6.40;;;4.70;;
12707;SDS011;6418;50.824;4.718;2023-04-28T12:27:32;9.10;;;5.27;;
12707;SDS011;6418;50.824;4.718;2023-04-28T12:30:00;10.90;;;4.97;;
12707;SDS011;6418;50.824;4.718;2023-04-28T12:32:37;8.70;;;4.80;;
12707;SDS011;6418;50.824;4.718;2023-04-28T12:35:05;7.03;;;4.73;;
12707;SDS011;6418;50.824;4.718;2023-04-28T12:37:32;7.07;;;5.20;;
12707;SDS011;6418;50.824;4.718;2023-04-28T12:40:00;9.23;;;5.60;;
12707;SDS011;6418;50.824;4.718;2023-04-28T12:42:31;8.47;;;4.90;;
12707;SDS011;6418;50.824;4.718;2023-04-28T12:44:58;8.40;;;5.30;;
12707;SDS011;6418;50.824;4.718;2023-04-28T12:47:25;7.37;;;4.70;;
12707;SDS011;6418;50.824;4.718;2023-04-28T12:49:52;6.67;;;4.40;;
12707;SDS011;6418;50.824;4.718;2023-04-28T12:52:19;5.73;;;3.67;;
12707;SDS011;6418;50.824;4.718;2023-04-28T12:54:46;3.80;;;3.40;;
12707;SDS011;6418;50.824;4.718;2023-04-28T12:57:14;4.90;;;3.20;;
12707;SDS011;6418;50.824;4.718;2023-04-28T12:59:44;3.47;;;3.17;;
12707;SDS011;6418;50.824;4.718;2023-04-28T13:02:11;3.40;;;2.97;;
12707;SDS011;6418;50.824;4.718;2023-04-28T13:04:38;3.70;;;3.00;;
12707;SDS011;6418;50.824;4.718;2023-04-28T13:07:06;3.83;;;3.00;;
12707;SDS011;6418;50.824;4.718;2023-04-28T13:09:34;3.43;;;3.10;;
12707;SDS011;6418;50.824;4.718;2023-04-28T13:12:01;5.03;;;2.93;;
12707;SDS011;6418;50.824;4.718;2023-04-28T13:14:29;5.67;;;3.07;;
12707;SDS011;6418;50.824;4.718;2023-04-28T13:16:58;5.80;;;3.27;;
12707;SDS011;6418;50.824;4.718;2023-04-28T13:19:27;4.90;;;3.63;;
12707;SDS011;6418;50.824;4.718;2023-04-28T13:21:55;5.10;;;3.90;;
12707;SDS011;6418;50.824;4.718;2023-04-28T13:24:22;5.33;;;3.70;;
12707;SDS011;6418;50.824;4.718;2023-04-28T13:26:50;3.50;;;3.20;;
12707;SDS011;6418;50.824;4.718;2023-04-28T13:29:17;3.73;;;3.03;;
12707;SDS011;6418;50.824;4.718;2023-04-28T13:31:44;5.53;;;2.97;;
12707;SDS011;6418;50.824;4.718;2023-04-28T13:34:13;3.03;;;2.60;;
12707;SDS011;6418;50.824;4.718;2023-04-28T13:36:42;3.03;;;2.73;;
12707;SDS011;6418;50.824;4.718;2023-04-28T13:39:09;2.70;;;2.40;;
12707;SDS011;6418;50.824;4.718;2023-04-28T13:41:38;2.77;;;2.50;;
12707;SDS011;6418;50.824;4.718;2023-04-28T13:44:05;3.30;;;2.60;;
12707;SDS011;6418;50.824;4.718;2023-04-28T13:46:34;4.90;;;2.40;;
12707;SDS011;6418;50.824;4.718;2023-04-28T13:49:01;2.80;;;2.60;;
12707;SDS011;6418;50.824;4.718;2023-04-28T13:51:30;3.27;;;2.40;;
12707;SDS011;6418;50.824;4.718;2023-04-28T13:53:58;3.37;;;2.80;;
12707;SDS011;6418;50.824;4.718;2023-04-28T13:56:25;3.10;;;2.83;;
12707;SDS011;6418;50.824;4.718;2023-04-28T13:58:52;2.73;;;2.53;;
12707;SDS011;6418;50.824;4.718;2023-04-28T14:01:19;2.70;;;2.60;;
12707;SDS011;6418;50.824;4.718;2023-04-28T14:03:46;3.40;;;2.90;;
12707;SDS011;6418;50.824;4.718;2023-04-28T14:06:13;2.40;;;2.20;;
12707;SDS011;6418;50.824;4.718;2023-04-28T14:08:41;2.93;;;2.50;;
12707;SDS011;6418;50.824;4.718;2023-04-28T14:11:08;3.10;;;2.63;;
12707;SDS011;6418;50.824;4.718;2023-04-28T14:13:36;4.47;;;2.50;;
12707;SDS011;6418;50.824;4.718;2023-04-28T14:16:03;4.87;;;2.97;;
12707;SDS011;6418;50.824;4.718;2023-04-28T14:18:31;5.50;;;3.40;;
12707;SDS011;6418;50.824;4.718;2023-04-28T14:20:58;4.07;;;2.90;;
12707;SDS011;6418;50.824;4.718;2023-04-28T14:23:26;2.90;;;2.70;;
12707;SDS011;6418;50.824;4.718;2023-04-28T14:25:54;3.23;;;2.93;;
12707;SDS011;6418;50.824;4.718;2023-04-28T14:28:22;3.50;;;3.03;;
12707;SDS011;6418;50.824;4.718;2023-04-28T14:30:49;5.77;;;3.00;;
12707;SDS011;6418;50.824;4.718;2023-04-28T14:33:16;3.37;;;3.07;;
12707;SDS011;6418;50.824;4.718;2023-04-28T14:35:43;3.27;;;2.93;;
12707;SDS011;6418;50.824;4.718;2023-04-28T14:38:11;4.77;;;3.17;;
12707;SDS011;6418;50.824;4.718;2023-04-28T14:40:38;2.73;;;2.53;;
12707;SDS011;6418;50.824;4.718;2023-04-28T14:43:08;4.33;;;2.60;;
12707;SDS011;6418;50.824;4.718;2023-04-28T14:45:35;3.73;;;3.10;;
12707;SDS011;6418;50.824;4.718;2023-04-28T14:48:02;2.93;;;2.67;;
12707;SDS011;6418;50.824;4.718;2023-04-28T14:50:30;3.63;;;2.57;;
12707;SDS011;6418;50.824;4.718;2023-04-28T14:52:57;3.30;;;3.00;;
12707;SDS011;6418;50.824;4.718;2023-04-28T14:55:29;5.27;;;3.03;;
12707;SDS011;6418;50.824;4.718;2023-04-28T14:57:56;3.00;;;2.70;;
12707;SDS011;6418;50.824;4.718;2023-04-28T15:00:24;3.00;;;2.70;;